This is the latest recevied weather packets stored in our database for station/object 7M1JBF-11. If no packets are shown the sender has not sent any weather packets the latest 1 day(s).
| Time | Temp. | Humidity | Pressure | Rain* | Wind** | Luminosity | Snow |
|---|---|---|---|---|---|---|---|
| 1836274782 | 30.56° C | 100% | 1012.6 hPa | 0.25 mm | 0 m/s | - | - |
| 1836274181 | 30.56° C | 100% | 1012.8 hPa | 0.25 mm | 0.45 m/s, 49° | - | - |
| 1778055693 | 20.56° C | 100% | 1017.8 hPa | 0 mm | 3.13 m/s, 236° | - | - |
| 1778055089 | 20.56° C | 100% | 1018 hPa | 0 mm | 5.81 m/s, 229° | - | - |
| 1778052684 | 21.11° C | 100% | 1018.2 hPa | 0 mm | 2.68 m/s, 225° | - | - |
| 1778052083 | 21.11° C | 100% | 1018 hPa | 0 mm | 3.13 m/s, 225° | - | - |
| 1778050881 | 21.67° C | 100% | 1017.9 hPa | 0 mm | 4.92 m/s, 225° | - | - |
| 1778050278 | 21.67° C | 100% | 1017.9 hPa | 0 mm | 3.58 m/s, 245° | - | - |
| 1778049677 | 21.67° C | 100% | 1018 hPa | 0 mm | 3.13 m/s, 229° | - | - |
| 1778049076 | 21.67° C | 100% | 1017.9 hPa | 0 mm | 3.58 m/s, 227° | - | - |
| 1778048474 | 21.67° C | 100% | 1018 hPa | 0 mm | 4.92 m/s, 225° | - | - |
| 1778047873 | 21.67° C | 100% | 1018.3 hPa | 0 mm | 2.68 m/s, 227° | - | - |
| 1778047272 | 21.67° C | 100% | 1018.2 hPa | 0 mm | 1.34 m/s, 157° | - | - |
| 1778046670 | 21.67° C | 100% | 1018.4 hPa | 0 mm | 4.02 m/s, 225° | - | - |
| 1778045467 | 21.67° C | 100% | 1018.3 hPa | 0 mm | 2.24 m/s, 218° | - | - |
| 1778044866 | 21.67° C | 100% | 1018.5 hPa | 0 mm | 3.13 m/s, 229° | - | - |
| 1778044265 | 21.67° C | 100% | 1018.8 hPa | 0 mm | 3.13 m/s, 234° | - | - |
| 1778043062 | 21.67° C | 100% | 1019.2 hPa | 0 mm | 2.68 m/s, 216° | - | - |
| 1778042461 | 21.67° C | 100% | 1019.2 hPa | 0 mm | 4.02 m/s, 225° | - | - |
| 1778041859 | 21.67° C | 100% | 1019.2 hPa | 0 mm | 3.58 m/s, 227° | - | - |
| 1778041258 | 21.67° C | 100% | 1019.5 hPa | 0 mm | 0.89 m/s, 184° | - | - |
| 1778040055 | 22.22° C | 100% | 1019.7 hPa | 0 mm | 2.24 m/s, 225° | - | - |
| 1778039454 | 22.22° C | 100% | 1019.8 hPa | 0 mm | 3.58 m/s, 211° | - | - |
| 1778038853 | 22.22° C | 100% | 1019.8 hPa | 0 mm | 4.02 m/s, 229° | - | - |
| 1778038251 | 22.22° C | 100% | 1019.8 hPa | 0 mm | 2.24 m/s, 218° | - | - |
* Rain since midnight (hover to see other rain measurements)
** Current wind speed in m/s (hover to see current wind gust speed)